Time;durP1;ratioP1;P1;durP2;ratioP2;P2;SDS_P1;SDS_P2;PMS_P1;PMS_P2;Temp;Humidity;BMP_temperature;BMP_pressure;BME280_temperature;BME280_humidity;BME280_pressure;Samples;Min_cycle;Max_cycle;Signal;HPM_P1;HPM_P2
2022/09/26 00:01:41;;;;;;;7.30;3.85;;;;;;;;;;10212148;28;20023;-75
2022/09/26 00:06:42;;;;;;;7.45;4.15;;;;;;;;;;10232155;29;20054;-74
2022/09/26 00:11:43;;;;;;;7.00;4.55;;;;;;;;;;10228550;29;20555;-74
2022/09/26 00:16:43;;;;;;;7.68;4.53;;;;;;;;;;10210574;29;20039;-74
2022/09/26 00:21:43;;;;;;;8.80;6.13;;;;;;;;;;10223701;29;20023;-78
2022/09/26 00:26:44;;;;;;;7.03;4.50;;;;;;;;;;10208969;29;20114;-73
2022/09/26 00:31:46;;;;;;;6.07;4.35;;;;;;;;;;10226320;29;20024;-74
2022/09/26 00:36:46;;;;;;;7.88;4.22;;;;;;;;;;10206337;29;20071;-79
2022/09/26 00:41:46;;;;;;;8.30;4.18;;;;;;;;;;10225735;29;20134;-79
2022/09/26 00:46:47;;;;;;;9.10;4.53;;;;;;;;;;10209732;29;20042;-77
2022/09/26 00:51:50;;;;;;;6.80;3.92;;;;;;;;;;10223189;28;20023;-76
2022/09/26 00:56:53;;;;;;;8.07;4.43;;;;;;;;;;10210011;29;20027;-76
2022/09/26 01:01:54;;;;;;;7.00;3.92;;;;;;;;;;10224692;29;20027;-80
2022/09/26 01:06:58;;;;;;;5.30;3.78;;;;;;;;;;10228710;29;20516;-76
2022/09/26 01:12:00;;;;;;;6.43;3.85;;;;;;;;;;10227099;29;20586;-80
2022/09/26 01:17:00;;;;;;;7.70;4.13;;;;;;;;;;10208783;29;20019;-74
2022/09/26 01:22:10;;;;;;;4.43;3.17;;;;;;;;;;10225450;29;20024;-76
2022/09/26 01:27:28;;;;;;;7.20;3.97;;;;;;;;;;10225288;29;20027;-76
2022/09/26 01:32:47;;;;;;;5.75;3.83;;;;;;;;;;10230332;29;20023;-78
2022/09/26 01:37:58;;;;;;;10.77;3.88;;;;;;;;;;10229394;29;20050;-76
2022/09/26 01:42:58;;;;;;;10.05;3.40;;;;;;;;;;10229707;29;20626;-80
2022/09/26 01:48:09;;;;;;;7.60;4.32;;;;;;;;;;10223400;29;20019;-76
2022/09/26 01:53:28;;;;;;;5.05;3.53;;;;;;;;;;10221877;29;20020;-76
2022/09/26 01:58:55;;;;;;;5.78;3.85;;;;;;;;;;10230077;29;20031;-76
2022/09/26 02:03:57;;;;;;;5.60;4.47;;;;;;;;;;10209490;29;20038;-75
2022/09/26 02:09:00;;;;;;;6.05;4.55;;;;;;;;;;10232663;29;20118;-76
2022/09/26 02:14:16;;;;;;;4.97;3.97;;;;;;;;;;10214059;29;20034;-78
2022/09/26 02:19:20;;;;;;;5.53;3.97;;;;;;;;;;10234180;29;20020;-75
2022/09/26 02:24:21;;;;;;;7.35;5.50;;;;;;;;;;10230818;29;20058;-75
2022/09/26 02:29:21;;;;;;;8.63;4.72;;;;;;;;;;10232191;29;20031;-79
2022/09/26 02:34:23;;;;;;;8.38;4.18;;;;;;;;;;10215225;29;20023;-75
2022/09/26 02:39:23;;;;;;;10.68;4.65;;;;;;;;;;10213582;29;20791;-75
2022/09/26 02:44:33;;;;;;;13.95;4.40;;;;;;;;;;10230850;29;20038;-78
2022/09/26 02:49:33;;;;;;;8.50;5.40;;;;;;;;;;10234364;29;20079;-80
2022/09/26 02:54:34;;;;;;;10.88;6.15;;;;;;;;;;10229066;29;20082;-75
2022/09/26 02:59:41;;;;;;;8.15;4.95;;;;;;;;;;10229872;29;20016;-74
2022/09/26 03:05:00;;;;;;;11.88;5.65;;;;;;;;;;10212954;29;20023;-75
2022/09/26 03:10:04;;;;;;;6.78;5.03;;;;;;;;;;10212336;29;20021;-78
2022/09/26 03:15:05;;;;;;;23.90;5.68;;;;;;;;;;10213862;29;20067;-75
2022/09/26 03:20:10;;;;;;;7.30;5.20;;;;;;;;;;10230593;28;20118;-77
2022/09/26 03:25:13;;;;;;;14.50;4.72;;;;;;;;;;10209492;29;20028;-75
2022/09/26 03:30:14;;;;;;;9.75;4.53;;;;;;;;;;10231049;28;20114;-79
2022/09/26 03:35:15;;;;;;;8.45;5.75;;;;;;;;;;10211704;29;20034;-74
2022/09/26 03:40:15;;;;;;;10.45;5.00;;;;;;;;;;10211966;28;20051;-73
2022/09/26 03:45:16;;;;;;;9.50;5.47;;;;;;;;;;10211954;28;20458;-77
2022/09/26 03:50:16;;;;;;;9.77;4.93;;;;;;;;;;10211255;28;20032;-75
2022/09/26 03:55:16;;;;;;;10.88;5.22;;;;;;;;;;10226967;29;20086;-78
2022/09/26 04:00:17;;;;;;;12.77;5.32;;;;;;;;;;10215213;29;20020;-77
2022/09/26 04:05:17;;;;;;;6.93;5.15;;;;;;;;;;10226893;29;20402;-77
2022/09/26 04:10:17;;;;;;;9.20;5.82;;;;;;;;;;10226652;29;20032;-74
2022/09/26 04:15:18;;;;;;;11.88;6.38;;;;;;;;;;10227195;28;20058;-74
2022/09/26 04:20:19;;;;;;;12.30;5.90;;;;;;;;;;10227442;29;20031;-79
2022/09/26 04:25:19;;;;;;;11.23;5.95;;;;;;;;;;10213193;28;20493;-79
2022/09/26 04:30:21;;;;;;;17.67;6.78;;;;;;;;;;10212203;28;20118;-75
2022/09/26 04:35:23;;;;;;;14.20;6.47;;;;;;;;;;10228817;28;20114;-76
2022/09/26 04:40:23;;;;;;;10.60;6.75;;;;;;;;;;10230697;28;20154;-80
2022/09/26 04:45:23;;;;;;;17.60;7.40;;;;;;;;;;10209257;29;20024;-79
2022/09/26 04:50:23;;;;;;;15.52;6.88;;;;;;;;;;10230650;28;20035;-80
2022/09/26 04:55:24;;;;;;;26.13;7.27;;;;;;;;;;10209772;29;20019;-75
2022/09/26 05:00:24;;;;;;;16.33;7.93;;;;;;;;;;10223249;29;20122;-78
2022/09/26 05:05:25;;;;;;;16.07;7.73;;;;;;;;;;10222306;29;20030;-75
2022/09/26 05:10:25;;;;;;;16.48;8.73;;;;;;;;;;10208205;29;20031;-77
2022/09/26 05:15:25;;;;;;;18.30;7.70;;;;;;;;;;10208142;29;20168;-78
2022/09/26 05:20:30;;;;;;;19.42;8.23;;;;;;;;;;10223872;29;20023;-75
2022/09/26 05:30:53;;;;;;;14.27;8.63;;;;;;;;;;10227089;28;20480;-79
2022/09/26 05:35:54;;;;;;;17.98;7.45;;;;;;;;;;10224959;28;20023;-80
2022/09/26 05:40:57;;;;;;;18.10;9.68;;;;;;;;;;10206139;29;20138;-78
2022/09/26 05:45:58;;;;;;;20.15;9.15;;;;;;;;;;10223275;29;20020;-78
2022/09/26 05:51:08;;;;;;;18.70;7.93;;;;;;;;;;10207661;29;20027;-80
2022/09/26 05:56:09;;;;;;;20.02;7.25;;;;;;;;;;10205804;29;20597;-75
2022/09/26 06:01:11;;;;;;;17.65;8.35;;;;;;;;;;10226904;29;20031;-74
2022/09/26 06:06:13;;;;;;;28.55;8.95;;;;;;;;;;10224372;29;20075;-75
2022/09/26 06:11:17;;;;;;;31.67;11.85;;;;;;;;;;10228256;29;20027;-78
2022/09/26 06:16:19;;;;;;;29.65;11.80;;;;;;;;;;10220192;29;20023;-75
2022/09/26 06:21:19;;;;;;;33.22;12.30;;;;;;;;;;10223994;29;20019;-79
2022/09/26 06:26:23;;;;;;;25.88;10.10;;;;;;;;;;10204596;29;20892;-75
2022/09/26 06:31:24;;;;;;;28.52;12.07;;;;;;;;;;10206177;29;20031;-75
2022/09/26 06:36:25;;;;;;;17.58;9.75;;;;;;;;;;10205427;29;20027;-76
2022/09/26 06:41:26;;;;;;;21.83;9.40;;;;;;;;;;10221870;29;20055;-77
2022/09/26 06:46:26;;;;;;;23.88;9.02;;;;;;;;;;10206761;29;20059;-76
2022/09/26 06:51:27;;;;;;;18.70;9.40;;;;;;;;;;10210830;29;20039;-79
2022/09/26 06:56:27;;;;;;;24.42;7.95;;;;;;;;;;10213848;29;20271;-84
2022/09/26 07:01:27;;;;;;;9.68;4.82;;;;;;;;;;10231135;29;20785;-74
2022/09/26 07:06:27;;;;;;;10.40;3.58;;;;;;;;;;10211508;29;20442;-78
2022/09/26 07:11:28;;;;;;;11.85;3.58;;;;;;;;;;10211386;29;20022;-75
2022/09/26 07:16:28;;;;;;;7.82;4.07;;;;;;;;;;10213264;29;20047;-75
2022/09/26 07:21:29;;;;;;;9.43;4.55;;;;;;;;;;10230537;29;20777;-81
2022/09/26 07:26:29;;;;;;;12.43;3.30;;;;;;;;;;10212636;29;20023;-75
2022/09/26 07:31:29;;;;;;;11.98;3.72;;;;;;;;;;10209617;29;20109;-79
2022/09/26 07:36:30;;;;;;;10.05;3.72;;;;;;;;;;10210063;29;20027;-77
2022/09/26 07:41:30;;;;;;;7.07;3.67;;;;;;;;;;10212144;29;20565;-82
2022/09/26 07:51:53;;;;;;;10.48;4.93;;;;;;;;;;10228703;29;20028;-76
2022/09/26 07:56:53;;;;;;;7.65;3.95;;;;;;;;;;10212115;29;20033;-75
2022/09/26 08:01:53;;;;;;;8.63;3.90;;;;;;;;;;10225140;28;20031;-78
2022/09/26 08:06:54;;;;;;;10.00;4.17;;;;;;;;;;10210344;29;20030;-75
2022/09/26 08:11:55;;;;;;;8.02;3.83;;;;;;;;;;10215482;29;20027;-74
2022/09/26 08:16:55;;;;;;;10.82;2.92;;;;;;;;;;10209501;29;20492;-77
2022/09/26 08:21:56;;;;;;;13.80;3.75;;;;;;;;;;10208704;29;20055;-75
2022/09/26 08:26:56;;;;;;;12.20;3.22;;;;;;;;;;10226641;28;20019;-74
2022/09/26 08:31:57;;;;;;;13.98;3.20;;;;;;;;;;10225455;29;20031;-74
2022/09/26 08:36:57;;;;;;;6.85;3.58;;;;;;;;;;10223716;29;20113;-77
2022/09/26 08:42:12;;;;;;;13.73;4.47;;;;;;;;;;10209342;29;20138;-75
2022/09/26 08:47:15;;;;;;;9.00;3.53;;;;;;;;;;10223327;29;20717;-80
2022/09/26 08:52:22;;;;;;;9.32;4.45;;;;;;;;;;10227731;29;20515;-75
2022/09/26 08:57:25;;;;;;;15.77;3.60;;;;;;;;;;10226804;28;20085;-78
2022/09/26 09:02:37;;;;;;;14.18;3.60;;;;;;;;;;10223741;29;20027;-80
2022/09/26 09:07:37;;;;;;;5.50;3.20;;;;;;;;;;10228890;29;20023;-73
2022/09/26 09:12:51;;;;;;;12.73;3.40;;;;;;;;;;10206569;28;20050;-81
2022/09/26 09:17:57;;;;;;;5.72;3.17;;;;;;;;;;10222007;29;20090;-77
2022/09/26 09:23:03;;;;;;;5.95;3.10;;;;;;;;;;10224260;29;20028;-78
2022/09/26 09:28:21;;;;;;;4.65;2.85;;;;;;;;;;10219928;29;20114;-80
2022/09/26 09:33:31;;;;;;;4.15;2.30;;;;;;;;;;10228940;29;20034;-79
2022/09/26 09:38:33;;;;;;;2.60;1.80;;;;;;;;;;10224347;29;20057;-79
2022/09/26 09:43:33;;;;;;;9.63;2.28;;;;;;;;;;10223549;29;20047;-74
2022/09/26 09:48:34;;;;;;;4.18;2.10;;;;;;;;;;10222411;29;20030;-76
2022/09/26 09:54:06;;;;;;;7.78;2.20;;;;;;;;;;10206921;29;20030;-74
2022/09/26 09:59:17;;;;;;;6.55;3.15;;;;;;;;;;10179537;28;20031;-73
2022/09/26 10:04:26;;;;;;;15.82;8.30;;;;;;;;;;10223393;29;20429;-75
2022/09/26 10:09:30;;;;;;;8.18;2.75;;;;;;;;;;10221433;29;20035;-74
2022/09/26 10:14:41;;;;;;;8.32;2.58;;;;;;;;;;10222113;29;20027;-79
2022/09/26 10:19:43;;;;;;;6.57;2.78;;;;;;;;;;10228984;29;20055;-75
2022/09/26 10:24:45;;;;;;;8.35;2.05;;;;;;;;;;10210366;29;20028;-74
2022/09/26 10:29:46;;;;;;;11.23;3.00;;;;;;;;;;10228140;29;20031;-79
2022/09/26 10:35:01;;;;;;;6.30;2.65;;;;;;;;;;10213583;29;20451;-74
2022/09/26 10:45:34;;;;;;;14.10;3.72;;;;;;;;;;10233074;29;20054;-79
2022/09/26 10:50:35;;;;;;;11.63;3.97;;;;;;;;;;10225824;29;20130;-79
2022/09/26 10:55:47;;;;;;;9.50;3.47;;;;;;;;;;10212881;29;20186;-80
2022/09/26 11:00:51;;;;;;;9.18;3.78;;;;;;;;;;10230606;29;20019;-77
2022/09/26 11:05:58;;;;;;;8.68;3.53;;;;;;;;;;10228728;29;20015;-75
2022/09/26 11:10:59;;;;;;;9.57;3.23;;;;;;;;;;10229496;29;20034;-78
2022/09/26 11:16:07;;;;;;;5.32;2.40;;;;;;;;;;10231357;29;20016;-75
2022/09/26 11:21:26;;;;;;;3.33;1.80;;;;;;;;;;10229288;29;20155;-76
2022/09/26 11:26:31;;;;;;;3.38;2.10;;;;;;;;;;10233948;29;20027;-80
2022/09/26 11:31:35;;;;;;;2.75;1.75;;;;;;;;;;10226468;29;20409;-75
2022/09/26 11:36:54;;;;;;;1.95;1.75;;;;;;;;;;10210491;29;20028;-76
2022/09/26 11:42:14;;;;;;;2.55;1.60;;;;;;;;;;10232755;29;20103;-81
2022/09/26 11:47:35;;;;;;;5.90;2.13;;;;;;;;;;10210983;29;20123;-75
2022/09/26 11:52:38;;;;;;;8.45;2.58;;;;;;;;;;10228387;29;20411;-79
2022/09/26 11:57:47;;;;;;;4.10;1.70;;;;;;;;;;10235031;29;20062;-80
2022/09/26 12:03:06;;;;;;;4.90;2.25;;;;;;;;;;10227096;29;20576;-80
2022/09/26 12:08:12;;;;;;;8.50;2.38;;;;;;;;;;10208714;29;20110;-74
2022/09/26 12:13:13;;;;;;;5.95;1.75;;;;;;;;;;10226612;29;20023;-78
2022/09/26 12:18:20;;;;;;;5.40;2.03;;;;;;;;;;10227546;29;20414;-83
2022/09/26 12:23:20;;;;;;;;;;;;;;;;;;10223895;29;20449;-78
2022/09/26 12:28:26;;;;;;;2.75;1.25;;;;;;;;;;10226894;29;19906;-79
2022/09/26 12:33:36;;;;;;;3.70;1.95;;;;;;;;;;10208526;29;20502;-74
2022/09/26 12:39:14;;;;;;;4.15;2.05;;;;;;;;;;10226427;28;20043;-74
2022/09/26 12:44:21;;;;;;;4.25;1.67;;;;;;;;;;10141931;29;20028;-76
2022/09/26 12:49:37;;;;;;;7.13;3.13;;;;;;;;;;10198854;29;20038;-76
2022/09/26 12:54:58;;;;;;;4.53;1.50;;;;;;;;;;10212231;29;20342;-80
2022/09/26 13:00:09;;;;;;;6.57;1.70;;;;;;;;;;10217716;29;20402;-76
2022/09/26 13:05:09;;;;;;;7.40;2.38;;;;;;;;;;10209412;29;20026;-74
2022/09/26 13:10:21;;;;;;;5.35;1.95;;;;;;;;;;10226274;29;20023;-78
2022/09/26 13:15:25;;;;;;;5.53;2.33;;;;;;;;;;10215342;29;20114;-79
2022/09/26 13:20:26;;;;;;;4.03;2.05;;;;;;;;;;10231791;29;20038;-74
2022/09/26 13:25:43;;;;;;;6.63;2.47;;;;;;;;;;10227669;29;20030;-74
2022/09/26 13:30:59;;;;;;;5.38;2.22;;;;;;;;;;10225674;29;20024;-75
2022/09/26 13:36:00;;;;;;;2.92;2.03;;;;;;;;;;10212205;29;20031;-78
2022/09/26 13:41:03;;;;;;;6.18;2.67;;;;;;;;;;10211327;28;20078;-80
2022/09/26 13:46:11;;;;;;;7.65;2.28;;;;;;;;;;10225959;29;20030;-77
2022/09/26 13:51:23;;;;;;;9.93;1.63;;;;;;;;;;10212423;29;20038;-75
2022/09/26 13:56:33;;;;;;;3.60;2.10;;;;;;;;;;10215014;29;20075;-74
2022/09/26 14:01:35;;;;;;;4.80;2.35;;;;;;;;;;10227705;29;20027;-75
2022/09/26 14:06:35;;;;;;;8.05;2.90;;;;;;;;;;10224719;29;20375;-82
2022/09/26 14:11:48;;;;;;;4.85;2.20;;;;;;;;;;10210043;29;20027;-74
2022/09/26 14:16:49;;;;;;;7.78;2.63;;;;;;;;;;10207783;29;20363;-78
2022/09/26 14:21:59;;;;;;;4.28;2.45;;;;;;;;;;10227197;29;20465;-80
2022/09/26 14:27:08;;;;;;;2.85;1.70;;;;;;;;;;10227068;29;20016;-80
2022/09/26 14:32:11;;;;;;;3.70;1.60;;;;;;;;;;10224079;28;20154;-81
2022/09/26 14:37:24;;;;;;;7.13;1.45;;;;;;;;;;10220666;28;20397;-77
2022/09/26 14:42:26;;;;;;;2.63;1.48;;;;;;;;;;10223141;29;20071;-75
2022/09/26 14:47:29;;;;;;;3.50;1.80;;;;;;;;;;10204704;29;20125;-78
2022/09/26 14:52:30;;;;;;;2.47;1.60;;;;;;;;;;10204529;29;20114;-75
2022/09/26 14:57:31;;;;;;;6.80;1.38;;;;;;;;;;10205399;29;20028;-74
2022/09/26 15:02:37;;;;;;;1.88;1.30;;;;;;;;;;10205057;29;20406;-80
2022/09/26 15:07:45;;;;;;;6.68;2.67;;;;;;;;;;10221106;29;20114;-74
2022/09/26 15:12:48;;;;;;;4.65;1.40;;;;;;;;;;10227693;29;20035;-74
2022/09/26 15:17:52;;;;;;;5.00;1.80;;;;;;;;;;10227629;29;20102;-73
2022/09/26 15:22:56;;;;;;;2.10;1.77;;;;;;;;;;10209805;28;20556;-75
2022/09/26 15:27:56;;;;;;;5.32;1.70;;;;;;;;;;10211186;29;20085;-78
2022/09/26 15:32:57;;;;;;;5.18;1.45;;;;;;;;;;10228905;29;20128;-76
2022/09/26 15:37:59;;;;;;;4.93;1.55;;;;;;;;;;10209712;29;20469;-75
2022/09/26 15:43:08;;;;;;;2.55;1.30;;;;;;;;;;10224286;29;20031;-75
2022/09/26 15:48:24;;;;;;;5.07;2.00;;;;;;;;;;10221933;29;20102;-83
2022/09/26 15:53:28;;;;;;;2.42;2.20;;;;;;;;;;10232320;29;20627;-79
2022/09/26 15:58:43;;;;;;;2.78;1.40;;;;;;;;;;10227927;29;20058;-75
2022/09/26 16:04:01;;;;;;;7.97;1.50;;;;;;;;;;10229689;28;20038;-74
2022/09/26 16:09:07;;;;;;;2.20;1.50;;;;;;;;;;10232479;29;20051;-79
2022/09/26 16:14:18;;;;;;;2.60;1.95;;;;;;;;;;10225350;29;20453;-76
2022/09/26 16:19:29;;;;;;;3.55;1.50;;;;;;;;;;10226584;29;20027;-75
2022/09/26 16:24:33;;;;;;;4.30;1.75;;;;;;;;;;10209764;29;20541;-74
2022/09/26 16:29:34;;;;;;;3.97;1.80;;;;;;;;;;10193498;29;20019;-74
2022/09/26 16:34:34;;;;;;;3.30;1.10;;;;;;;;;;10212228;29;20062;-73
2022/09/26 16:39:35;;;;;;;3.33;1.58;;;;;;;;;;10222776;29;20078;-77
2022/09/26 16:44:40;;;;;;;2.45;1.35;;;;;;;;;;10211041;29;20039;-80
2022/09/26 16:49:44;;;;;;;2.08;1.60;;;;;;;;;;10215245;29;20023;-73
2022/09/26 16:54:45;;;;;;;3.53;1.50;;;;;;;;;;10201864;29;20031;-73
2022/09/26 16:59:45;;;;;;;6.00;1.70;;;;;;;;;;10230757;29;20106;-77
2022/09/26 17:04:47;;;;;;;2.13;1.53;;;;;;;;;;10210570;29;20692;-73
2022/09/26 17:09:47;;;;;;;6.57;1.67;;;;;;;;;;10213342;29;20342;-78
2022/09/26 17:14:50;;;;;;;4.88;1.95;;;;;;;;;;10212628;29;20608;-73
2022/09/26 17:19:51;;;;;;;2.72;1.52;;;;;;;;;;10215547;29;20027;-75
2022/09/26 17:24:52;;;;;;;4.15;1.58;;;;;;;;;;10212781;29;20028;-72
2022/09/26 17:29:54;;;;;;;5.05;2.38;;;;;;;;;;10225971;29;20032;-75
2022/09/26 17:34:56;;;;;;;2.42;1.30;;;;;;;;;;10213866;29;20489;-77
2022/09/26 17:39:57;;;;;;;2.72;1.75;;;;;;;;;;10225588;29;20047;-76
2022/09/26 17:44:57;;;;;;;2.33;1.40;;;;;;;;;;10209386;29;20035;-78
2022/09/26 17:49:58;;;;;;;2.47;1.70;;;;;;;;;;10208999;29;20019;-76
2022/09/26 17:55:01;;;;;;;5.55;2.00;;;;;;;;;;10228875;28;20427;-75
2022/09/26 18:00:04;;;;;;;3.20;2.25;;;;;;;;;;10227631;29;20107;-76
2022/09/26 18:05:09;;;;;;;2.13;1.92;;;;;;;;;;10209127;29;20023;-76
2022/09/26 18:10:18;;;;;;;9.68;2.97;;;;;;;;;;10232089;29;20453;-73
2022/09/26 18:15:20;;;;;;;5.88;2.83;;;;;;;;;;10198839;29;20042;-73
2022/09/26 18:20:31;;;;;;;8.18;3.25;;;;;;;;;;10209957;29;20502;-74
2022/09/26 18:25:32;;;;;;;5.93;3.95;;;;;;;;;;10212292;29;20015;-77
2022/09/26 18:30:33;;;;;;;7.05;4.13;;;;;;;;;;10213339;29;20512;-74
2022/09/26 18:35:33;;;;;;;7.47;3.08;;;;;;;;;;10225174;29;20031;-75
2022/09/26 18:40:36;;;;;;;7.90;2.58;;;;;;;;;;10225069;28;20054;-77
2022/09/26 18:45:36;;;;;;;5.00;3.35;;;;;;;;;;10211610;28;20036;-75
2022/09/26 18:50:38;;;;;;;6.88;3.10;;;;;;;;;;10217555;29;20031;-76
2022/09/26 19:00:58;;;;;;;13.32;3.35;;;;;;;;;;10234709;29;20031;-76
2022/09/26 19:06:03;;;;;;;7.68;3.15;;;;;;;;;;10232520;29;20046;-75
2022/09/26 19:11:11;;;;;;;10.57;3.53;;;;;;;;;;10235777;29;20511;-78
2022/09/26 19:16:12;;;;;;;3.95;2.80;;;;;;;;;;10218829;29;20035;-78
2022/09/26 19:21:12;;;;;;;5.78;3.47;;;;;;;;;;10214957;29;20062;-77
2022/09/26 19:26:34;;;;;;;7.90;4.13;;;;;;;;;;10233605;29;20058;-78
2022/09/26 19:31:35;;;;;;;7.65;4.82;;;;;;;;;;10236480;29;20568;-77
2022/09/26 19:36:35;;;;;;;7.03;4.50;;;;;;;;;;10233518;29;20027;-77
2022/09/26 19:41:35;;;;;;;9.88;4.90;;;;;;;;;;10214387;29;20067;-72
2022/09/26 19:46:36;;;;;;;6.97;4.75;;;;;;;;;;10215784;29;20030;-75
2022/09/26 19:51:38;;;;;;;8.23;5.25;;;;;;;;;;10212968;28;20038;-75
2022/09/26 19:56:38;;;;;;;9.32;6.28;;;;;;;;;;10232225;28;20035;-75
2022/09/26 20:01:40;;;;;;;11.35;6.00;;;;;;;;;;10215940;29;20023;-76
2022/09/26 20:06:40;;;;;;;13.75;6.05;;;;;;;;;;10212198;29;20027;-72
2022/09/26 20:11:40;;;;;;;10.77;6.20;;;;;;;;;;10215708;29;20023;-75
2022/09/26 20:16:41;;;;;;;15.70;7.30;;;;;;;;;;10201272;29;20057;-74
2022/09/26 20:21:43;;;;;;;11.55;7.05;;;;;;;;;;10219825;28;20066;-77
2022/09/26 20:26:44;;;;;;;12.55;6.65;;;;;;;;;;10220859;29;20036;-74
2022/09/26 20:31:46;;;;;;;12.35;7.60;;;;;;;;;;10222256;29;20743;-79
2022/09/26 20:36:50;;;;;;;11.07;7.72;;;;;;;;;;10201442;29;20445;-77
2022/09/26 20:41:51;;;;;;;14.73;7.82;;;;;;;;;;10222010;28;20070;-77
2022/09/26 20:46:55;;;;;;;12.32;8.27;;;;;;;;;;10219182;29;20110;-79
2022/09/26 20:51:57;;;;;;;13.75;9.07;;;;;;;;;;10219263;29;20589;-73
2022/09/26 20:56:58;;;;;;;14.05;9.43;;;;;;;;;;10198161;29;20035;-73
2022/09/26 21:01:58;;;;;;;15.32;9.52;;;;;;;;;;10200187;29;20095;-75
2022/09/26 21:06:58;;;;;;;15.50;10.52;;;;;;;;;;10580626;23;20063;-79
2022/09/26 21:12:00;;;;;;;14.13;9.25;;;;;;;;;;10198865;28;20416;-78
2022/09/26 21:17:00;;;;;;;16.08;9.73;;;;;;;;;;10214667;28;20039;-77
2022/09/26 21:22:00;;;;;;;13.52;9.43;;;;;;;;;;10204268;28;20103;-74
2022/09/26 21:27:01;;;;;;;18.73;10.13;;;;;;;;;;10197643;28;20027;-75
2022/09/26 21:32:03;;;;;;;14.63;9.40;;;;;;;;;;10197767;28;20469;-74
2022/09/26 21:37:06;;;;;;;15.25;9.93;;;;;;;;;;10197459;28;20062;-76
2022/09/26 21:42:07;;;;;;;17.90;10.73;;;;;;;;;;10195501;28;20031;-79
2022/09/26 21:47:07;;;;;;;16.27;11.13;;;;;;;;;;10207206;29;20130;-74
2022/09/26 21:52:15;;;;;;;18.80;10.68;;;;;;;;;;10189495;29;20086;-75
2022/09/26 21:57:18;;;;;;;25.27;10.95;;;;;;;;;;10199620;29;20090;-76
2022/09/26 22:02:19;;;;;;;23.83;13.55;;;;;;;;;;10207556;29;20043;-75
2022/09/26 22:07:20;;;;;;;17.65;11.77;;;;;;;;;;10194067;29;20078;-77
2022/09/26 22:12:20;;;;;;;17.92;10.40;;;;;;;;;;10190214;29;20023;-74
2022/09/26 22:17:20;;;;;;;19.00;11.75;;;;;;;;;;10211734;28;20413;-73
2022/09/26 22:22:20;;;;;;;16.17;10.45;;;;;;;;;;10212880;28;20185;-75
2022/09/26 22:27:20;;;;;;;19.25;11.55;;;;;;;;;;10232718;29;20103;-73
2022/09/26 22:32:21;;;;;;;21.52;12.27;;;;;;;;;;10231685;29;20909;-73
2022/09/26 22:37:21;;;;;;;19.63;11.13;;;;;;;;;;10229652;29;20042;-75
2022/09/26 22:42:21;;;;;;;24.75;13.60;;;;;;;;;;10230876;29;20401;-77
2022/09/26 22:47:21;;;;;;;25.10;12.60;;;;;;;;;;10229030;29;20019;-75
2022/09/26 22:52:22;;;;;;;24.40;14.00;;;;;;;;;;10228430;29;20063;-78
2022/09/26 22:57:22;;;;;;;15.48;10.95;;;;;;;;;;10232002;28;20023;-75
2022/09/26 23:02:22;;;;;;;13.93;9.70;;;;;;;;;;10230261;29;20019;-76
2022/09/26 23:07:22;;;;;;;13.38;9.77;;;;;;;;;;10230351;29;20066;-76
2022/09/26 23:12:23;;;;;;;14.33;9.20;;;;;;;;;;10230106;28;20489;-75
2022/09/26 23:17:23;;;;;;;16.75;11.07;;;;;;;;;;10230372;29;20023;-74
2022/09/26 23:22:23;;;;;;;20.87;10.83;;;;;;;;;;10229794;28;20485;-79
2022/09/26 23:27:25;;;;;;;18.08;11.13;;;;;;;;;;10230267;28;20078;-75
2022/09/26 23:32:25;;;;;;;18.10;12.48;;;;;;;;;;10228543;28;20401;-74
2022/09/26 23:37:25;;;;;;;18.45;10.60;;;;;;;;;;10230190;29;20023;-75
2022/09/26 23:42:25;;;;;;;17.00;11.88;;;;;;;;;;10228754;28;20023;-74
2022/09/26 23:47:26;;;;;;;18.42;11.68;;;;;;;;;;10229642;28;20485;-78
2022/09/26 23:52:26;;;;;;;18.08;11.35;;;;;;;;;;10243719;29;20111;-76
2022/09/26 23:57:26;;;;;;;19.63;12.68;;;;;;;;;;10228760;28;20536;-75
